THA322 VGHS-VTBS
Flight info
| Callsign | THA322 |
|---|---|
| Flight time | N/A |
| Altitude | 41000 |
| Route | ADMIL1D ADMIL G463 BGO L507 IGONI WILLA1C |
| Aircraft | A359/H-SDE2E3GHIJ3J4J5LM1ORWXY/LB1D1 |
Departure
| Time | 2026-04-27 16:05 |
|---|---|
| Airport | Hazrat Shahjalal International Airport (VGHS) |
Arrival
| Time | N/A |
|---|---|
| Airport | Suvarnabhumi Airport (VTBS) |
| Time | Latitude | Longitude | Altitude | Speed | Heading |
|---|---|---|---|---|---|
| 2026-04-27 15:44 | 23.84842 | 90.40330 | 31 ft | 0 kts | 52° |
| 2026-04-27 15:45 | 23.84846 | 90.40332 | 32 ft | 0 kts | 50° |
| 2026-04-27 15:45 | 23.84846 | 90.40333 | 32 ft | 0 kts | 50° |
| 2026-04-27 15:48 | 23.84844 | 90.40331 | 32 ft | 3 kts | 53° |
| 2026-04-27 15:49 | 23.84832 | 90.40289 | 32 ft | 3 kts | 96° |
| 2026-04-27 15:49 | 23.84837 | 90.40267 | 39 ft | 3 kts | 118° |
| 2026-04-27 15:49 | 23.84846 | 90.40252 | 38 ft | 0 kts | 134° |
| 2026-04-27 15:59 | 23.84833 | 90.40258 | 42 ft | 3 kts | 156° |
| 2026-04-27 15:59 | 23.84786 | 90.40285 | 42 ft | 12 kts | 156° |
| 2026-04-27 15:59 | 23.84690 | 90.40279 | 42 ft | 15 kts | 213° |
| 2026-04-27 15:59 | 23.84654 | 90.40206 | 42 ft | 4 kts | 292° |
| 2026-04-27 16:00 | 23.84690 | 90.40166 | 42 ft | 13 kts | 316° |
| 2026-04-27 16:00 | 23.84750 | 90.40116 | 42 ft | 18 kts | 323° |
| 2026-04-27 16:00 | 23.84882 | 90.40011 | 42 ft | 19 kts | 323° |
| 2026-04-27 16:00 | 23.84996 | 90.39919 | 42 ft | 22 kts | 323° |
| 2026-04-27 16:01 | 23.85124 | 90.39817 | 42 ft | 23 kts | 323° |
| 2026-04-27 16:01 | 23.85264 | 90.39705 | 41 ft | 26 kts | 323° |
| 2026-04-27 16:01 | 23.85418 | 90.39581 | 42 ft | 29 kts | 323° |
| 2026-04-27 16:01 | 23.85586 | 90.39449 | 42 ft | 30 kts | 326° |
| 2026-04-27 16:02 | 23.85726 | 90.39320 | 42 ft | 22 kts | 298° |
| 2026-04-27 16:02 | 23.85716 | 90.39187 | 42 ft | 18 kts | 242° |
| 2026-04-27 16:02 | 23.85646 | 90.39078 | 42 ft | 19 kts | 234° |
| 2026-04-27 16:02 | 23.85562 | 90.38953 | 41 ft | 19 kts | 233° |
| 2026-04-27 16:03 | 23.85554 | 90.38942 | 41 ft | 0 kts | 233° |
| 2026-04-27 16:03 | 23.85536 | 90.38918 | 39 ft | 10 kts | 228° |
| 2026-04-27 16:03 | 23.85463 | 90.38893 | 41 ft | 10 kts | 164° |
| 2026-04-27 16:04 | 23.85411 | 90.38934 | 42 ft | 13 kts | 143° |
| 2026-04-27 16:04 | 23.85169 | 90.39127 | 40 ft | 79 kts | 144° |
| 2026-04-27 16:04 | 23.84541 | 90.39622 | 43 ft | 141 kts | 144° |
| 2026-04-27 16:04 | 23.83636 | 90.40333 | 387 ft | 163 kts | 144° |
| 2026-04-27 16:05 | 23.82813 | 90.40988 | 1447 ft | 148 kts | 146° |
| 2026-04-27 16:05 | 23.81840 | 90.41780 | 1995 ft | 202 kts | 148° |
| 2026-04-27 16:05 | 23.80501 | 90.42818 | 2346 ft | 268 kts | 149° |
| 2026-04-27 16:05 | 23.78875 | 90.44085 | 3265 ft | 300 kts | 149° |
| 2026-04-27 16:06 | 23.77181 | 90.45437 | 4826 ft | 300 kts | 148° |
| 2026-04-27 16:06 | 23.75510 | 90.46776 | 6468 ft | 298 kts | 148° |
| 2026-04-27 16:06 | 23.73827 | 90.48110 | 7880 ft | 302 kts | 148° |
| 2026-04-27 16:06 | 23.72098 | 90.49476 | 9075 ft | 313 kts | 147° |
| 2026-04-27 16:07 | 23.70302 | 90.50893 | 10115 ft | 326 kts | 147° |
| 2026-04-27 16:07 | 23.68367 | 90.52356 | 10693 ft | 351 kts | 153° |
| 2026-04-27 16:07 | 23.66081 | 90.53490 | 11183 ft | 371 kts | 163° |
| 2026-04-27 16:07 | 23.63616 | 90.54482 | 11966 ft | 383 kts | 163° |
| 2026-04-27 16:08 | 23.61096 | 90.55501 | 12899 ft | 390 kts | 163° |
| 2026-04-27 16:08 | 23.58538 | 90.56549 | 13839 ft | 395 kts | 163° |
| 2026-04-27 16:08 | 23.55951 | 90.57617 | 14715 ft | 401 kts | 163° |
| 2026-04-27 16:08 | 23.53324 | 90.58703 | 15579 ft | 406 kts | 163° |
| 2026-04-27 16:09 | 23.50659 | 90.59806 | 16452 ft | 413 kts | 163° |
| 2026-04-27 16:09 | 23.45222 | 90.62058 | 18114 ft | 424 kts | 162° |
| 2026-04-27 16:09 | 23.42445 | 90.63208 | 18751 ft | 430 kts | 162° |
| 2026-04-27 16:10 | 23.37088 | 90.66206 | 20004 ft | 445 kts | 147° |
| 2026-04-27 16:10 | 23.31966 | 90.70121 | 21338 ft | 454 kts | 147° |
| 2026-04-27 16:11 | 23.29366 | 90.72099 | 22006 ft | 459 kts | 147° |
| 2026-04-27 16:11 | 23.24069 | 90.76118 | 23248 ft | 469 kts | 146° |
| 2026-04-27 16:12 | 23.19810 | 90.81474 | 24261 ft | 477 kts | 114° |
| 2026-04-27 16:12 | 23.18805 | 90.84889 | 24769 ft | 477 kts | 97° |
| 2026-04-27 16:12 | 23.18426 | 90.92123 | 25833 ft | 482 kts | 90° |
| 2026-04-27 16:13 | 23.17999 | 90.95762 | 26333 ft | 490 kts | 102° |
| 2026-04-27 16:13 | 23.14765 | 91.02273 | 27392 ft | 498 kts | 133° |
| 2026-04-27 16:13 | 23.12280 | 91.04916 | 27924 ft | 501 kts | 140° |
| 2026-04-27 16:14 | 23.06849 | 91.09709 | 28963 ft | 507 kts | 144° |
| 2026-04-27 16:14 | 23.01282 | 91.14488 | 29952 ft | 514 kts | 143° |
| 2026-04-27 16:15 | 22.95726 | 91.19443 | 30791 ft | 520 kts | 143° |
| 2026-04-27 16:15 | 22.90186 | 91.24483 | 31569 ft | 526 kts | 143° |
| 2026-04-27 16:16 | 22.84519 | 91.29655 | 32276 ft | 532 kts | 143° |
| 2026-04-27 16:16 | 22.78818 | 91.34848 | 32953 ft | 538 kts | 143° |
| 2026-04-27 16:17 | 22.73109 | 91.40028 | 33724 ft | 539 kts | 144° |
| 2026-04-27 16:17 | 22.67355 | 91.45245 | 34459 ft | 539 kts | 144° |
| 2026-04-27 16:18 | 22.61600 | 91.50457 | 35198 ft | 539 kts | 144° |
| 2026-04-27 16:18 | 22.55856 | 91.55659 | 35938 ft | 538 kts | 143° |
| 2026-04-27 16:19 | 22.52972 | 91.58268 | 36283 ft | 538 kts | 143° |
| 2026-04-27 16:19 | 22.50096 | 91.60862 | 36629 ft | 538 kts | 143° |
| 2026-04-27 16:20 | 22.41478 | 91.68622 | 37720 ft | 537 kts | 143° |
| 2026-04-27 16:20 | 22.38613 | 91.71202 | 38091 ft | 536 kts | 143° |
| 2026-04-27 16:20 | 22.32889 | 91.76351 | 38715 ft | 535 kts | 143° |
| 2026-04-27 16:21 | 22.30029 | 91.78922 | 39009 ft | 534 kts | 143° |
| 2026-04-27 16:21 | 22.21508 | 91.86580 | 39933 ft | 529 kts | 143° |
| 2026-04-27 16:22 | 22.18678 | 91.89109 | 40219 ft | 528 kts | 143° |
| 2026-04-27 16:22 | 22.13031 | 91.94144 | 40750 ft | 526 kts | 143° |
| 2026-04-27 16:22 | 22.10208 | 91.96658 | 40827 ft | 526 kts | 143° |
| 2026-04-27 16:23 | 22.01772 | 92.04176 | 40823 ft | 525 kts | 143° |
| 2026-04-27 16:24 | 21.98192 | 92.07364 | 40821 ft | 525 kts | 143° |
| 2026-04-27 16:25 | 21.96163 | 92.09170 | 40813 ft | 525 kts | 143° |
| 2026-04-27 16:26 | 21.85795 | 92.18259 | 40832 ft | 524 kts | 144° |
| 2026-04-27 16:27 | 21.74322 | 92.28141 | 40841 ft | 526 kts | 144° |
| 2026-04-27 16:28 | 21.60262 | 92.40863 | 40848 ft | 531 kts | 139° |
| 2026-04-27 16:29 | 21.46890 | 92.54531 | 40852 ft | 531 kts | 139° |
| 2026-04-27 16:30 | 21.36055 | 92.65315 | 40851 ft | 531 kts | 140° |
| 2026-04-27 16:31 | 21.22500 | 92.78770 | 40859 ft | 531 kts | 139° |
| 2026-04-27 16:32 | 21.14360 | 92.86842 | 40860 ft | 531 kts | 139° |
| 2026-04-27 16:33 | 21.06211 | 92.94907 | 40867 ft | 532 kts | 140° |
| 2026-04-27 16:33 | 21.00773 | 93.00281 | 40863 ft | 532 kts | 140° |
| 2026-04-27 16:34 | 20.95331 | 93.05653 | 40863 ft | 532 kts | 140° |
| 2026-04-27 16:34 | 20.89883 | 93.11027 | 40871 ft | 532 kts | 140° |
| 2026-04-27 16:35 | 20.84435 | 93.16396 | 40872 ft | 533 kts | 140° |
| 2026-04-27 16:36 | 20.76251 | 93.24451 | 40872 ft | 533 kts | 140° |
| 2026-04-27 16:36 | 20.70795 | 93.29812 | 40875 ft | 534 kts | 140° |
| 2026-04-27 16:37 | 20.65333 | 93.35174 | 40876 ft | 534 kts | 140° |
| 2026-04-27 16:37 | 20.59859 | 93.40543 | 40873 ft | 534 kts | 140° |
| 2026-04-27 16:38 | 20.54387 | 93.45905 | 40884 ft | 534 kts | 140° |
| 2026-04-27 16:38 | 20.48914 | 93.51260 | 40884 ft | 534 kts | 140° |
| 2026-04-27 16:39 | 20.43435 | 93.56615 | 40886 ft | 534 kts | 140° |
| 2026-04-27 16:39 | 20.37947 | 93.61973 | 40892 ft | 535 kts | 140° |
| 2026-04-27 16:40 | 20.32463 | 93.67328 | 40891 ft | 535 kts | 141° |
| 2026-04-27 16:40 | 20.26971 | 93.72682 | 40892 ft | 535 kts | 141° |
| 2026-04-27 16:41 | 20.21496 | 93.78015 | 40883 ft | 536 kts | 141° |
| 2026-04-27 16:41 | 20.15990 | 93.83370 | 40886 ft | 536 kts | 141° |
| 2026-04-27 16:42 | 20.10478 | 93.88727 | 40883 ft | 537 kts | 141° |
| 2026-04-27 16:42 | 20.04954 | 93.94090 | 40880 ft | 537 kts | 141° |
| 2026-04-27 16:43 | 19.99442 | 93.99437 | 40877 ft | 537 kts | 141° |
| 2026-04-27 16:43 | 19.93922 | 94.04788 | 40881 ft | 536 kts | 141° |
| 2026-04-27 16:44 | 19.88409 | 94.10125 | 40880 ft | 536 kts | 141° |
| 2026-04-27 16:44 | 19.82900 | 94.15452 | 40876 ft | 535 kts | 141° |
| 2026-04-27 16:45 | 19.77396 | 94.20769 | 40874 ft | 534 kts | 141° |
| 2026-04-27 16:45 | 19.71905 | 94.26067 | 40876 ft | 533 kts | 141° |
| 2026-04-27 16:46 | 19.66413 | 94.31364 | 40874 ft | 533 kts | 141° |
| 2026-04-27 16:46 | 19.60931 | 94.36648 | 40870 ft | 533 kts | 141° |
| 2026-04-27 16:47 | 19.55445 | 94.41928 | 40869 ft | 532 kts | 141° |
| 2026-04-27 16:47 | 19.49962 | 94.47199 | 40857 ft | 531 kts | 141° |
| 2026-04-27 16:48 | 19.44490 | 94.52455 | 40860 ft | 531 kts | 141° |
| 2026-04-27 16:48 | 19.39015 | 94.57710 | 40863 ft | 531 kts | 141° |
| 2026-04-27 16:49 | 19.30796 | 94.65591 | 40856 ft | 531 kts | 141° |
| 2026-04-27 16:49 | 19.25317 | 94.70835 | 40845 ft | 531 kts | 141° |
| 2026-04-27 16:50 | 19.19785 | 94.76017 | 40848 ft | 531 kts | 142° |
| 2026-04-27 16:50 | 19.14215 | 94.81129 | 40854 ft | 530 kts | 142° |
| 2026-04-27 16:51 | 19.08644 | 94.86252 | 40850 ft | 531 kts | 142° |
| 2026-04-27 16:51 | 19.03081 | 94.91383 | 40842 ft | 530 kts | 142° |
| 2026-04-27 16:52 | 18.97522 | 94.96515 | 40838 ft | 531 kts | 142° |
| 2026-04-27 16:52 | 18.91963 | 95.01642 | 40817 ft | 530 kts | 142° |
| 2026-04-27 16:53 | 18.86402 | 95.06766 | 40829 ft | 530 kts | 142° |
| 2026-04-27 16:53 | 18.80846 | 95.11879 | 40824 ft | 530 kts | 142° |
| 2026-04-27 16:54 | 18.75278 | 95.16999 | 40821 ft | 530 kts | 142° |
| 2026-04-27 16:54 | 18.69717 | 95.22108 | 40823 ft | 530 kts | 142° |
| 2026-04-27 16:55 | 18.64149 | 95.27218 | 40820 ft | 530 kts | 142° |
| 2026-04-27 16:55 | 18.58582 | 95.32323 | 40823 ft | 530 kts | 142° |
| 2026-04-27 16:56 | 18.53009 | 95.37428 | 40827 ft | 531 kts | 142° |
| 2026-04-27 16:56 | 18.47427 | 95.42538 | 40826 ft | 528 kts | 142° |
| 2026-04-27 16:57 | 18.41908 | 95.47629 | 40832 ft | 532 kts | 141° |
| 2026-04-27 16:57 | 18.36381 | 95.52923 | 40829 ft | 542 kts | 141° |
| 2026-04-27 16:58 | 18.30837 | 95.58270 | 40828 ft | 537 kts | 141° |
| 2026-04-27 16:58 | 18.25386 | 95.63495 | 40833 ft | 532 kts | 141° |
| 2026-04-27 16:59 | 18.19918 | 95.68705 | 40834 ft | 530 kts | 141° |
| 2026-04-27 16:59 | 18.14449 | 95.73907 | 40838 ft | 530 kts | 141° |
| 2026-04-27 17:00 | 18.06253 | 95.81697 | 40839 ft | 529 kts | 141° |
| 2026-04-27 17:01 | 18.00800 | 95.86877 | 40841 ft | 529 kts | 141° |
| 2026-04-27 17:01 | 17.95340 | 95.92058 | 40841 ft | 529 kts | 141° |
| 2026-04-27 17:02 | 17.89883 | 95.97232 | 40846 ft | 528 kts | 141° |
| 2026-04-27 17:02 | 17.84432 | 96.02395 | 40841 ft | 528 kts | 141° |
| 2026-04-27 17:03 | 17.79899 | 96.06686 | 40844 ft | 528 kts | 141° |
| 2026-04-27 17:03 | 17.74449 | 96.11841 | 40845 ft | 528 kts | 141° |
| 2026-04-27 17:04 | 17.68080 | 96.17859 | 40841 ft | 528 kts | 141° |
| 2026-04-27 17:04 | 17.63543 | 96.22142 | 40845 ft | 527 kts | 141° |
| 2026-04-27 17:05 | 17.58092 | 96.27284 | 40842 ft | 527 kts | 141° |
| 2026-04-27 17:05 | 17.52637 | 96.32426 | 40842 ft | 528 kts | 141° |
| 2026-04-27 17:06 | 17.47202 | 96.37545 | 40843 ft | 527 kts | 141° |
| 2026-04-27 17:06 | 17.41721 | 96.42703 | 40841 ft | 527 kts | 141° |
| 2026-04-27 17:07 | 17.36270 | 96.47828 | 40843 ft | 527 kts | 141° |
| 2026-04-27 17:07 | 17.31032 | 96.53202 | 40843 ft | 530 kts | 132° |
| 2026-04-27 17:08 | 17.26417 | 96.59242 | 40840 ft | 531 kts | 130° |
| 2026-04-27 17:08 | 17.21915 | 96.65371 | 40839 ft | 531 kts | 130° |
| 2026-04-27 17:09 | 17.17418 | 96.71501 | 40840 ft | 531 kts | 130° |
| 2026-04-27 17:09 | 17.12901 | 96.77618 | 40843 ft | 531 kts | 130° |
| 2026-04-27 17:10 | 17.08384 | 96.83716 | 40844 ft | 531 kts | 130° |
| 2026-04-27 17:10 | 17.03861 | 96.89812 | 40843 ft | 531 kts | 130° |
| 2026-04-27 17:11 | 16.99332 | 96.95914 | 40845 ft | 531 kts | 130° |
| 2026-04-27 17:11 | 16.92546 | 97.05048 | 40848 ft | 530 kts | 130° |
| 2026-04-27 17:12 | 16.85756 | 97.14174 | 40851 ft | 531 kts | 130° |
| 2026-04-27 17:13 | 16.81225 | 97.20259 | 40852 ft | 531 kts | 130° |
| 2026-04-27 17:13 | 16.76690 | 97.26342 | 40850 ft | 531 kts | 130° |
| 2026-04-27 17:14 | 16.72178 | 97.32389 | 40851 ft | 531 kts | 130° |
| 2026-04-27 17:14 | 16.67569 | 97.38561 | 40850 ft | 531 kts | 130° |
| 2026-04-27 17:15 | 16.63025 | 97.44642 | 40854 ft | 532 kts | 131° |
| 2026-04-27 17:15 | 16.58479 | 97.50719 | 40852 ft | 532 kts | 131° |
| 2026-04-27 17:16 | 16.53927 | 97.56799 | 40859 ft | 532 kts | 131° |
| 2026-04-27 17:16 | 16.49369 | 97.62878 | 40856 ft | 534 kts | 130° |
| 2026-04-27 17:17 | 16.44775 | 97.69002 | 40851 ft | 537 kts | 130° |
| 2026-04-27 17:17 | 16.40175 | 97.75134 | 40847 ft | 537 kts | 130° |
| 2026-04-27 17:18 | 16.32503 | 97.83546 | 40850 ft | 533 kts | 141° |
| 2026-04-27 17:18 | 16.26912 | 97.88605 | 40849 ft | 532 kts | 142° |
| 2026-04-27 17:19 | 16.21293 | 97.93618 | 40856 ft | 532 kts | 142° |
| 2026-04-27 17:19 | 16.15687 | 97.98634 | 40853 ft | 532 kts | 142° |
| 2026-04-27 17:20 | 16.10085 | 98.03662 | 40853 ft | 532 kts | 141° |
| 2026-04-27 17:20 | 16.04489 | 98.08688 | 40859 ft | 531 kts | 141° |
| 2026-04-27 17:21 | 15.98893 | 98.13709 | 40858 ft | 531 kts | 141° |
| 2026-04-27 17:21 | 15.93340 | 98.18687 | 40865 ft | 531 kts | 141° |
| 2026-04-27 17:22 | 15.87741 | 98.23702 | 40870 ft | 531 kts | 141° |
| 2026-04-27 17:22 | 15.82139 | 98.28716 | 40871 ft | 530 kts | 141° |
| 2026-04-27 17:23 | 15.76549 | 98.33715 | 40876 ft | 530 kts | 141° |
| 2026-04-27 17:23 | 15.70957 | 98.38712 | 40884 ft | 530 kts | 141° |
| 2026-04-27 17:24 | 15.65368 | 98.43703 | 40889 ft | 530 kts | 141° |
| 2026-04-27 17:24 | 15.59744 | 98.48721 | 40894 ft | 529 kts | 141° |
| 2026-04-27 17:25 | 15.54163 | 98.53698 | 40896 ft | 529 kts | 141° |
| 2026-04-27 17:25 | 15.48636 | 98.58737 | 40901 ft | 530 kts | 136° |
| 2026-04-27 17:26 | 15.43794 | 98.64512 | 40908 ft | 531 kts | 131° |
| 2026-04-27 17:26 | 15.39143 | 98.70454 | 40909 ft | 530 kts | 130° |
| 2026-04-27 17:27 | 15.34518 | 98.76411 | 40911 ft | 530 kts | 130° |
| 2026-04-27 17:27 | 15.29917 | 98.82305 | 40910 ft | 529 kts | 130° |
| 2026-04-27 17:28 | 15.25250 | 98.88259 | 40910 ft | 529 kts | 130° |
| 2026-04-27 17:29 | 15.18322 | 98.97083 | 40905 ft | 528 kts | 130° |
| 2026-04-27 17:29 | 15.13689 | 99.02977 | 40898 ft | 527 kts | 130° |
| 2026-04-27 17:30 | 15.09056 | 99.08868 | 40891 ft | 527 kts | 130° |
| 2026-04-27 17:30 | 15.02116 | 99.17687 | 40878 ft | 527 kts | 130° |
| 2026-04-27 17:31 | 14.97487 | 99.23562 | 40872 ft | 526 kts | 130° |
| 2026-04-27 17:31 | 14.92859 | 99.29432 | 40865 ft | 526 kts | 130° |
| 2026-04-27 17:32 | 14.85912 | 99.38236 | 40857 ft | 526 kts | 130° |
| 2026-04-27 17:33 | 14.81255 | 99.44133 | 40851 ft | 526 kts | 130° |
| 2026-04-27 17:33 | 14.76636 | 99.49973 | 40847 ft | 526 kts | 130° |
| 2026-04-27 17:34 | 14.72005 | 99.55826 | 40849 ft | 526 kts | 130° |
| 2026-04-27 17:34 | 14.67372 | 99.61678 | 40843 ft | 525 kts | 130° |
| 2026-04-27 17:35 | 14.62739 | 99.67527 | 40837 ft | 525 kts | 130° |
| 2026-04-27 17:35 | 14.58115 | 99.73359 | 40836 ft | 525 kts | 130° |
| 2026-04-27 17:36 | 14.53494 | 99.79183 | 40834 ft | 524 kts | 130° |
| 2026-04-27 17:36 | 14.48912 | 99.84955 | 40833 ft | 523 kts | 130° |
| 2026-04-27 17:37 | 14.44423 | 99.90963 | 40834 ft | 524 kts | 120° |
| 2026-04-27 17:37 | 14.43365 | 99.93303 | 40835 ft | 524 kts | 109° |
| 2026-04-27 17:37 | 14.42411 | 99.96922 | 40831 ft | 523 kts | 102° |
| 2026-04-27 17:38 | 14.40798 | 100.04244 | 40833 ft | 524 kts | 103° |
| 2026-04-27 17:38 | 14.39049 | 100.11553 | 40834 ft | 524 kts | 104° |
| 2026-04-27 17:39 | 14.37248 | 100.18845 | 40833 ft | 524 kts | 104° |
| 2026-04-27 17:39 | 14.35438 | 100.26121 | 40834 ft | 523 kts | 104° |
| 2026-04-27 17:40 | 14.33618 | 100.33384 | 40834 ft | 523 kts | 104° |
| 2026-04-27 17:40 | 14.31797 | 100.40658 | 40836 ft | 523 kts | 104° |
| 2026-04-27 17:41 | 14.29971 | 100.47917 | 40834 ft | 523 kts | 104° |
| 2026-04-27 17:41 | 14.28146 | 100.55180 | 40837 ft | 523 kts | 104° |
| 2026-04-27 17:42 | 14.26332 | 100.62425 | 40836 ft | 522 kts | 103° |
| 2026-04-27 17:42 | 14.25026 | 100.65915 | 40848 ft | 522 kts | 120° |
| 2026-04-27 17:42 | 14.22956 | 100.68945 | 40658 ft | 510 kts | 134° |
| 2026-04-27 17:42 | 14.20358 | 100.71311 | 39954 ft | 490 kts | 149° |
| 2026-04-27 17:43 | 14.17418 | 100.72808 | 39385 ft | 468 kts | 165° |
| 2026-04-27 17:43 | 14.14317 | 100.73420 | 38802 ft | 447 kts | 182° |
| 2026-04-27 17:43 | 14.11289 | 100.73117 | 38080 ft | 428 kts | 199° |
| 2026-04-27 17:43 | 14.08585 | 100.71966 | 36981 ft | 417 kts | 216° |
| 2026-04-27 17:44 | 14.06339 | 100.70103 | 35652 ft | 415 kts | 230° |
| 2026-04-27 17:44 | 14.04686 | 100.67678 | 34273 ft | 416 kts | 246° |
| 2026-04-27 17:44 | 14.03824 | 100.64835 | 32823 ft | 418 kts | 263° |
| 2026-04-27 17:44 | 14.03838 | 100.61842 | 31376 ft | 421 kts | 279° |
| 2026-04-27 17:45 | 14.04732 | 100.58971 | 30006 ft | 424 kts | 296° |
| 2026-04-27 17:45 | 14.06423 | 100.56491 | 28451 ft | 426 kts | 313° |
| 2026-04-27 17:45 | 14.08762 | 100.54625 | 26970 ft | 428 kts | 329° |
| 2026-04-27 17:45 | 14.11548 | 100.53539 | 25555 ft | 430 kts | 346° |
| 2026-04-27 17:46 | 14.14522 | 100.53336 | 24192 ft | 430 kts | 3° |
| 2026-04-27 17:46 | 14.17432 | 100.53997 | 22814 ft | 429 kts | 17° |
| 2026-04-27 17:46 | 14.20221 | 100.55057 | 21317 ft | 424 kts | 19° |
| 2026-04-27 17:46 | 14.22961 | 100.56117 | 19900 ft | 417 kts | 17° |
| 2026-04-27 17:47 | 14.25701 | 100.57018 | 18546 ft | 410 kts | 14° |
| 2026-04-27 17:47 | 14.27509 | 100.57560 | 17605 ft | 406 kts | 14° |
| 2026-04-27 17:47 | 14.31102 | 100.58615 | 15650 ft | 397 kts | 14° |
| 2026-04-27 17:47 | 14.33734 | 100.59377 | 14264 ft | 390 kts | 14° |
| 2026-04-27 17:48 | 14.36322 | 100.60115 | 12833 ft | 383 kts | 14° |
| 2026-04-27 17:48 | 14.38841 | 100.60906 | 11440 ft | 375 kts | 20° |
| 2026-04-27 17:48 | 14.41099 | 100.62131 | 10554 ft | 358 kts | 34° |
| 2026-04-27 17:48 | 14.42856 | 100.63810 | 10058 ft | 332 kts | 51° |
| 2026-04-27 17:49 | 14.43995 | 100.65748 | 9854 ft | 302 kts | 66° |
| 2026-04-27 17:49 | 14.44546 | 100.67713 | 9819 ft | 271 kts | 81° |
| 2026-04-27 17:49 | 14.44627 | 100.69569 | 9836 ft | 261 kts | 94° |
| 2026-04-27 17:49 | 14.44309 | 100.71383 | 9949 ft | 257 kts | 107° |
| 2026-04-27 17:50 | 14.43599 | 100.73073 | 9993 ft | 256 kts | 121° |
| 2026-04-27 17:50 | 14.41155 | 100.75667 | 10007 ft | 253 kts | 149° |
| 2026-04-27 17:50 | 14.39567 | 100.76439 | 10000 ft | 252 kts | 163° |
| 2026-04-27 17:51 | 14.37856 | 100.76806 | 10004 ft | 251 kts | 176° |
| 2026-04-27 17:51 | 14.36119 | 100.76756 | 9994 ft | 249 kts | 190° |
| 2026-04-27 17:51 | 14.34450 | 100.76302 | 10007 ft | 248 kts | 202° |
| 2026-04-27 17:51 | 14.32867 | 100.75596 | 9994 ft | 248 kts | 206° |
| 2026-04-27 17:52 | 14.31304 | 100.74856 | 10008 ft | 248 kts | 206° |
| 2026-04-27 17:52 | 14.29726 | 100.74119 | 9995 ft | 248 kts | 205° |
| 2026-04-27 17:52 | 14.28150 | 100.73393 | 10009 ft | 248 kts | 205° |
| 2026-04-27 17:52 | 14.26575 | 100.72672 | 10003 ft | 248 kts | 205° |
| 2026-04-27 17:53 | 14.25000 | 100.71954 | 10003 ft | 248 kts | 205° |
| 2026-04-27 17:53 | 14.23421 | 100.71236 | 10005 ft | 248 kts | 205° |
| 2026-04-27 17:53 | 14.21841 | 100.70518 | 10001 ft | 248 kts | 205° |
| 2026-04-27 17:53 | 14.20262 | 100.69801 | 9884 ft | 250 kts | 205° |
| 2026-04-27 17:54 | 14.18665 | 100.69076 | 9582 ft | 250 kts | 205° |
| 2026-04-27 17:54 | 14.17087 | 100.68361 | 9327 ft | 246 kts | 205° |
| 2026-04-27 17:54 | 14.15546 | 100.67662 | 9046 ft | 244 kts | 205° |
| 2026-04-27 17:54 | 14.13998 | 100.66960 | 8864 ft | 234 kts | 205° |
| 2026-04-27 17:55 | 14.12561 | 100.66310 | 8653 ft | 218 kts | 205° |
| 2026-04-27 17:55 | 14.11230 | 100.65707 | 8347 ft | 209 kts | 205° |
| 2026-04-27 17:55 | 14.09882 | 100.65096 | 8055 ft | 207 kts | 205° |
| 2026-04-27 17:55 | 14.08589 | 100.64510 | 7801 ft | 205 kts | 205° |
| 2026-04-27 17:56 | 14.07290 | 100.63921 | 7534 ft | 203 kts | 205° |
| 2026-04-27 17:56 | 14.06001 | 100.63337 | 7262 ft | 202 kts | 204° |
| 2026-04-27 17:56 | 14.04706 | 100.62750 | 6991 ft | 200 kts | 204° |
| 2026-04-27 17:56 | 14.03425 | 100.62191 | 6703 ft | 199 kts | 201° |
| 2026-04-27 17:57 | 14.02108 | 100.61829 | 6433 ft | 199 kts | 189° |
| 2026-04-27 17:57 | 14.00732 | 100.61792 | 6140 ft | 199 kts | 175° |
| 2026-04-27 17:57 | 13.99367 | 100.62108 | 5850 ft | 199 kts | 162° |
| 2026-04-27 17:57 | 13.98136 | 100.62743 | 5566 ft | 199 kts | 148° |
| 2026-04-27 17:58 | 13.97097 | 100.63653 | 5275 ft | 200 kts | 135° |
| 2026-04-27 17:58 | 13.96283 | 100.64812 | 4972 ft | 201 kts | 121° |